This is the latest recevied weather packets stored in our database for station/object PU2XNA. If no packets are shown the sender has not sent any weather packets the latest 10 day(s).
| Time | Temp. | Humidity | Pressure | Rain* | Wind** | Luminosity | Snow |
|---|---|---|---|---|---|---|---|
| 1788115502 | 36.11° C | 34% | 1007.7 hPa | - | - | - | - |
| 1788114603 | 36.11° C | 35% | 1007.9 hPa | - | - | - | - |
| 1788113703 | 36.11° C | 35% | 1008.1 hPa | - | - | - | - |
| 1788112804 | 36.11° C | 35% | 1008.2 hPa | - | - | - | - |
| 1788111903 | 36.67° C | 34% | 1008.5 hPa | - | - | - | - |
| 1788111002 | 36.67° C | 35% | 1008.7 hPa | - | - | - | - |
| 1788110103 | 36.11° C | 34% | 1009.1 hPa | - | - | - | - |
| 1788109714 | 35.56° C | 36% | 1009.3 hPa | - | - | - | - |
| 1787544002 | 17.78° C | 69% | 1016.5 hPa | - | - | - | - |
| 1787543103 | 17.78° C | 68% | 1016.7 hPa | - | - | - | - |
| 1787542203 | 17.78° C | 68% | 1016.8 hPa | - | - | - | - |
| 1787541303 | 18.33° C | 68% | 1016.8 hPa | - | - | - | - |
| 1787540402 | 18.33° C | 67% | 1016.9 hPa | - | - | - | - |
| 1787539503 | 18.33° C | 67% | 1016.9 hPa | - | - | - | - |
| 1787538602 | 18.89° C | 66% | 1016.9 hPa | - | - | - | - |
| 1787537703 | 18.89° C | 66% | 1016.8 hPa | - | - | - | - |
| 1787536803 | 19.44° C | 65% | 1016.7 hPa | - | - | - | - |
| 1787535903 | 19.44° C | 64% | 1016.6 hPa | - | - | - | - |
| 1787535003 | 20° C | 63% | 1016.6 hPa | - | - | - | - |
| 1787534103 | 20° C | 62% | 1016.7 hPa | - | - | - | - |
| 1787533202 | 20.56° C | 60% | 1016.7 hPa | - | - | - | - |
| 1787532302 | 20.56° C | 59% | 1016.7 hPa | - | - | - | - |
| 1787531403 | 20.56° C | 57% | 1016.7 hPa | - | - | - | - |
| 1787530503 | 21.11° C | 54% | 1016.6 hPa | - | - | - | - |
| 1787529603 | 21.11° C | 50% | 1016.4 hPa | - | - | - | - |
* Rain since midnight (hover to see other rain measurements)
** Current wind speed in m/s (hover to see current wind gust speed)